Time;durP1;ratioP1;P1;durP2;ratioP2;P2;SDS_P1;SDS_P2;PMS_P1;PMS_P2;Temp;Humidity;BMP_temperature;BMP_pressure;BME280_temperature;BME280_humidity;BME280_pressure;Samples;Min_cycle;Max_cycle;Signal;HPM_P1;HPM_P2
2022/06/28 00:02:25;;;;;;;2.70;2.08;;;16.20;99.90;;;;;;5035532;28;20029;-51
2022/06/28 00:04:52;;;;;;;3.13;1.92;;;16.10;99.90;;;;;;5034302;28;20033;-51
2022/06/28 00:07:17;;;;;;;8.00;2.60;;;16.00;99.90;;;;;;5034001;28;20101;-51
2022/06/28 00:09:43;;;;;;;4.00;1.88;;;16.10;99.90;;;;;;5034997;28;20124;-51
2022/06/28 00:12:09;;;;;;;3.17;1.80;;;16.00;99.90;;;;;;5034245;28;20017;-53
2022/06/28 00:17:19;;;;;;;2.35;1.85;;;16.00;99.90;;;;;;5035696;28;20056;-55
2022/06/28 00:19:44;;;;;;;4.57;1.88;;;16.00;99.90;;;;;;5034536;28;20018;-50
2022/06/28 00:22:10;;;;;;;2.72;2.33;;;15.90;99.90;;;;;;5033805;28;20032;-52
2022/06/28 00:24:36;;;;;;;3.17;2.00;;;15.90;99.90;;;;;;5034491;28;20021;-52
2022/06/28 00:27:02;;;;;;;4.97;2.80;;;15.90;99.90;;;;;;5035026;28;20031;-50
2022/06/28 00:29:27;;;;;;;2.40;2.20;;;15.90;99.90;;;;;;5033644;28;20045;-51
2022/06/28 00:31:53;;;;;;;4.78;2.50;;;15.90;99.90;;;;;;5033422;28;20116;-53
2022/06/28 00:34:19;;;;;;;3.28;2.33;;;15.90;99.90;;;;;;5033373;28;20029;-52
2022/06/28 00:36:44;;;;;;;4.78;1.92;;;15.90;99.90;;;;;;5033387;28;20021;-55
2022/06/28 00:39:11;;;;;;;2.15;1.55;;;15.90;99.90;;;;;;5033310;28;20029;-56
2022/06/28 00:41:37;;;;;;;2.70;2.40;;;15.80;99.90;;;;;;5034471;28;20064;-52
2022/06/28 00:44:03;;;;;;;3.50;2.42;;;15.60;99.90;;;;;;5034085;28;20179;-51
2022/06/28 00:46:33;;;;;;;3.70;2.38;;;15.60;99.90;;;;;;5034393;28;20025;-53
2022/06/28 00:48:59;;;;;;;2.45;1.88;;;15.60;99.90;;;;;;5034455;28;20026;-53
2022/06/28 00:51:25;;;;;;;4.50;2.38;;;15.70;99.90;;;;;;5032926;28;20104;-53
2022/06/28 00:53:51;;;;;;;3.20;2.10;;;15.70;99.90;;;;;;5033137;28;20053;-52
2022/06/28 00:56:17;;;;;;;4.30;2.08;;;15.60;99.90;;;;;;5034353;28;20469;-51
2022/06/28 00:58:43;;;;;;;3.67;1.98;;;15.50;99.90;;;;;;5032983;28;20026;-53
2022/06/28 01:01:08;;;;;;;2.90;2.30;;;15.50;99.90;;;;;;5034264;28;20087;-56
2022/06/28 01:03:34;;;;;;;4.53;2.22;;;15.40;99.90;;;;;;5034164;28;20025;-51
2022/06/28 01:06:00;;;;;;;2.92;2.08;;;15.30;99.90;;;;;;5032823;28;20032;-55
2022/06/28 01:08:25;;;;;;;4.05;2.30;;;15.30;99.90;;;;;;5034048;28;20079;-54
2022/06/28 01:10:51;;;;;;;4.32;2.35;;;15.20;99.90;;;;;;5033409;28;20033;-51
2022/06/28 01:13:17;;;;;;;5.47;2.30;;;15.20;99.90;;;;;;5033223;28;20032;-51
2022/06/28 01:15:42;;;;;;;2.28;2.08;;;15.10;99.90;;;;;;5034150;28;20030;-55
2022/06/28 01:18:09;;;;;;;2.92;2.40;;;15.10;99.90;;;;;;5033169;28;20113;-52
2022/06/28 01:20:36;;;;;;;2.35;2.13;;;15.10;99.90;;;;;;5032468;28;20029;-52
2022/06/28 01:23:02;;;;;;;4.30;2.33;;;15.00;99.90;;;;;;5033054;28;20048;-56
2022/06/28 01:25:28;;;;;;;3.00;2.15;;;15.00;99.90;;;;;;5032415;28;20067;-56
2022/06/28 01:27:55;;;;;;;3.78;2.20;;;14.90;99.90;;;;;;5033745;28;20037;-57
2022/06/28 01:30:21;;;;;;;7.90;2.45;;;14.80;99.90;;;;;;5032498;28;20029;-56
2022/06/28 01:32:48;;;;;;;4.60;2.63;;;14.80;99.90;;;;;;5032369;28;20167;-55
2022/06/28 01:35:14;;;;;;;5.22;2.55;;;14.70;99.90;;;;;;5032453;28;20056;-56
2022/06/28 01:37:39;;;;;;;4.35;2.60;;;14.70;99.90;;;;;;5032694;28;20025;-56
2022/06/28 01:40:07;;;;;;;6.45;2.35;;;14.60;99.90;;;;;;5033610;28;20112;-56
2022/06/28 01:42:33;;;;;;;3.65;2.65;;;14.60;99.90;;;;;;5032512;28;20052;-54
2022/06/28 01:44:59;;;;;;;4.85;2.50;;;14.50;99.90;;;;;;5033628;28;20060;-56
2022/06/28 01:47:27;;;;;;;4.15;2.38;;;14.50;99.90;;;;;;5032284;28;20087;-57
2022/06/28 01:49:54;;;;;;;3.83;2.33;;;14.50;99.90;;;;;;5033255;28;20025;-55
2022/06/28 01:52:21;;;;;;;3.22;2.65;;;14.50;99.90;;;;;;5033211;28;20029;-56
2022/06/28 01:54:47;;;;;;;6.63;2.38;;;14.40;99.90;;;;;;5033260;28;20021;-55
2022/06/28 01:57:15;;;;;;;6.10;3.30;;;14.40;99.90;;;;;;5032744;28;20029;-54
2022/06/28 01:59:41;;;;;;;6.28;3.28;;;14.40;99.90;;;;;;5031850;28;20017;-57
2022/06/28 02:02:07;;;;;;;3.25;2.40;;;14.50;99.90;;;;;;5031877;28;20028;-53
2022/06/28 02:04:33;;;;;;;2.92;2.58;;;14.50;99.90;;;;;;5031925;28;20017;-55
2022/06/28 02:06:59;;;;;;;3.28;2.70;;;14.40;99.90;;;;;;5031872;28;20026;-58
2022/06/28 02:09:25;;;;;;;6.82;3.40;;;14.40;99.90;;;;;;5031797;28;20025;-54
2022/06/28 02:11:52;;;;;;;7.50;3.10;;;14.30;99.90;;;;;;5031748;28;20040;-53
2022/06/28 02:14:18;;;;;;;4.53;2.53;;;14.30;99.90;;;;;;5031729;28;20056;-56
2022/06/28 02:16:44;;;;;;;5.40;2.65;;;14.30;99.90;;;;;;5032938;28;20053;-56
2022/06/28 02:19:09;;;;;;;7.57;2.78;;;14.20;99.90;;;;;;5031623;28;20065;-57
2022/06/28 02:21:36;;;;;;;6.65;3.28;;;14.20;99.90;;;;;;5031611;28;20037;-57
2022/06/28 02:24:03;;;;;;;4.13;3.05;;;14.10;99.90;;;;;;5032060;28;20116;-52
2022/06/28 02:26:28;;;;;;;3.42;2.60;;;14.10;99.90;;;;;;5031757;28;20026;-56
2022/06/28 02:28:54;;;;;;;4.97;3.03;;;14.10;99.90;;;;;;5032827;28;20037;-52
2022/06/28 02:31:20;;;;;;;8.75;3.42;;;14.10;99.90;;;;;;5031968;28;20029;-51
2022/06/28 02:33:45;;;;;;;6.55;3.38;;;14.10;99.90;;;;;;5031960;28;20026;-53
2022/06/28 02:41:41;;;;;;;4.65;3.42;;;14.20;99.90;;;;;;5032771;28;20156;-56
2022/06/28 02:44:07;;;;;;;5.15;3.35;;;14.10;99.90;;;;;;5032840;28;20029;-52
2022/06/28 02:46:33;;;;;;;6.15;3.58;;;14.00;99.90;;;;;;5032683;28;20071;-53
2022/06/28 02:48:58;;;;;;;6.82;3.72;;;14.00;99.90;;;;;;5031381;28;20029;-54
2022/06/28 02:51:24;;;;;;;8.10;3.78;;;13.90;99.90;;;;;;5032620;28;20025;-56
2022/06/28 02:53:52;;;;;;;8.07;3.28;;;13.90;99.90;;;;;;5032636;28;20029;-53
2022/06/28 02:56:18;;;;;;;5.30;3.83;;;13.90;99.90;;;;;;5031381;28;20025;-53
2022/06/28 02:58:44;;;;;;;8.63;4.10;;;13.90;99.90;;;;;;5032381;28;20113;-53
2022/06/28 03:01:09;;;;;;;7.38;4.75;;;13.90;99.90;;;;;;5032554;28;20101;-56
2022/06/28 03:03:35;;;;;;;7.97;4.03;;;13.80;99.90;;;;;;5032499;28;20096;-53
2022/06/28 03:06:01;;;;;;;8.00;4.35;;;13.80;99.90;;;;;;5031243;28;20021;-54
2022/06/28 03:08:26;;;;;;;8.65;4.53;;;13.80;99.90;;;;;;5033083;28;20029;-55
2022/06/28 03:10:52;;;;;;;6.35;3.70;;;13.70;99.90;;;;;;5035192;28;20022;-53
2022/06/28 03:13:18;;;;;;;11.45;3.90;;;13.70;99.90;;;;;;5036213;28;20036;-52
2022/06/28 03:15:43;;;;;;;8.68;4.45;;;13.80;99.90;;;;;;5036091;28;20032;-56
2022/06/28 03:18:09;;;;;;;4.65;3.67;;;13.70;99.90;;;;;;5036106;28;20083;-55
2022/06/28 03:20:34;;;;;;;4.57;3.15;;;13.60;99.90;;;;;;5035524;28;20136;-53
2022/06/28 03:23:00;;;;;;;5.40;3.80;;;13.60;99.90;;;;;;5035631;28;20128;-51
2022/06/28 03:25:26;;;;;;;15.20;3.67;;;13.50;99.90;;;;;;5036259;28;20040;-55
2022/06/28 03:27:51;;;;;;;10.38;3.90;;;13.60;99.90;;;;;;5036022;28;20025;-54
2022/06/28 03:30:17;;;;;;;6.10;3.17;;;13.50;99.90;;;;;;5035755;28;20079;-54
2022/06/28 03:32:43;;;;;;;10.18;3.85;;;13.50;99.90;;;;;;5034688;28;20022;-54
2022/06/28 03:35:08;;;;;;;10.13;4.00;;;13.50;99.90;;;;;;5034888;28;20034;-54
2022/06/28 03:37:35;;;;;;;7.57;3.42;;;13.60;99.90;;;;;;5034493;28;20155;-57
2022/06/28 03:40:01;;;;;;;7.85;3.97;;;13.60;99.90;;;;;;5035628;28;20017;-56
2022/06/28 03:42:27;;;;;;;8.00;4.38;;;13.60;99.90;;;;;;5035702;28;20036;-54
2022/06/28 03:44:52;;;;;;;8.43;3.75;;;13.80;99.90;;;;;;5034443;28;20026;-56
2022/06/28 03:47:18;;;;;;;6.78;3.70;;;13.90;99.90;;;;;;5035532;28;20061;-55
2022/06/28 03:49:44;;;;;;;11.98;4.32;;;14.10;99.90;;;;;;5034243;28;20021;-53
2022/06/28 03:52:09;;;;;;;8.38;3.55;;;14.00;99.90;;;;;;5034713;28;20119;-57
2022/06/28 03:54:35;;;;;;;9.32;4.43;;;14.10;99.90;;;;;;5035364;28;20448;-53
2022/06/28 03:57:01;;;;;;;8.68;5.18;;;14.20;99.90;;;;;;5034232;28;20018;-56
2022/06/28 03:59:27;;;;;;;9.93;4.13;;;14.20;99.90;;;;;;5034100;28;20026;-52
2022/06/28 04:01:52;;;;;;;13.90;3.55;;;14.30;99.90;;;;;;5033972;28;20021;-53
2022/06/28 04:04:18;;;;;;;5.43;4.07;;;14.40;99.90;;;;;;5034600;28;20068;-54
2022/06/28 04:06:44;;;;;;;7.40;5.07;;;14.50;99.90;;;;;;5033961;28;20021;-56
2022/06/28 04:09:10;;;;;;;9.48;5.28;;;14.60;99.90;;;;;;5033801;28;20060;-55
2022/06/28 04:11:35;;;;;;;11.23;4.32;;;14.70;99.90;;;;;;5035025;28;20053;-54
2022/06/28 04:14:01;;;;;;;6.28;4.47;;;14.70;99.90;;;;;;5035159;28;20019;-51
2022/06/28 04:16:27;;;;;;;7.35;5.10;;;14.90;99.90;;;;;;5034958;28;20025;-51
2022/06/28 04:18:53;;;;;;;8.10;4.82;;;15.00;99.90;;;;;;5034559;28;20074;-56
2022/06/28 04:21:20;;;;;;;10.52;4.82;;;15.20;99.90;;;;;;5033318;28;20083;-54
2022/06/28 04:23:46;;;;;;;10.75;4.28;;;15.60;99.90;;;;;;5034904;28;20100;-54
2022/06/28 04:26:12;;;;;;;7.72;4.40;;;16.10;99.90;;;;;;5034422;28;20029;-53
2022/06/28 04:28:39;;;;;;;6.57;4.35;;;16.50;99.90;;;;;;5033630;28;20029;-53
2022/06/28 04:31:05;;;;;;;9.57;4.10;;;16.80;99.90;;;;;;5034013;28;20017;-53
2022/06/28 04:33:31;;;;;;;9.70;4.70;;;17.10;99.90;;;;;;5035586;28;20021;-56
2022/06/28 04:35:57;;;;;;;8.02;4.78;;;17.30;99.90;;;;;;5034107;28;20032;-53
2022/06/28 04:38:22;;;;;;;7.40;4.82;;;17.60;99.90;;;;;;5035024;28;20032;-53
2022/06/28 04:40:49;;;;;;;8.32;5.30;;;17.90;99.90;;;;;;5033736;28;20025;-53
2022/06/28 04:43:14;;;;;;;6.22;4.38;;;18.30;99.90;;;;;;5034705;28;20026;-51
2022/06/28 04:45:40;;;;;;;7.47;5.03;;;18.50;99.90;;;;;;5034790;28;20029;-53
2022/06/28 04:48:06;;;;;;;7.50;4.35;;;18.90;99.90;;;;;;5034794;28;20032;-56
2022/06/28 04:50:32;;;;;;;11.93;5.15;;;19.10;99.90;;;;;;5033651;28;20033;-54
2022/06/28 04:52:58;;;;;;;9.77;5.47;;;19.20;99.90;;;;;;5033453;28;20057;-54
2022/06/28 04:55:23;;;;;;;9.48;5.85;;;19.20;99.90;;;;;;5034692;28;20068;-51
2022/06/28 04:57:49;;;;;;;10.18;5.80;;;19.10;99.90;;;;;;5033718;28;20108;-51
2022/06/28 05:00:15;;;;;;;8.15;4.93;;;18.90;99.90;;;;;;5033383;28;20121;-56
2022/06/28 05:02:41;;;;;;;7.82;6.25;;;18.90;99.90;;;;;;5033654;28;20120;-51
2022/06/28 05:05:08;;;;;;;9.93;5.97;;;19.00;99.90;;;;;;5033281;28;20120;-53
2022/06/28 05:07:34;;;;;;;10.27;6.30;;;18.90;99.90;;;;;;5034477;28;20028;-52
2022/06/28 05:10:01;;;;;;;11.90;6.65;;;18.80;99.90;;;;;;5033316;28;20041;-53
2022/06/28 05:12:26;;;;;;;13.73;6.45;;;19.00;99.90;;;;;;5034333;28;20120;-52
2022/06/28 05:14:52;;;;;;;11.10;7.15;;;18.90;99.90;;;;;;5034334;28;20053;-56
2022/06/28 05:17:18;;;;;;;10.02;6.63;;;18.80;99.90;;;;;;5033381;28;20028;-53
2022/06/28 05:19:44;;;;;;;11.73;6.45;;;18.60;99.90;;;;;;5033376;28;20021;-52
2022/06/28 05:22:10;;;;;;;10.40;6.57;;;18.40;99.90;;;;;;5032937;28;20040;-55
2022/06/28 05:24:36;;;;;;;11.35;6.68;;;18.20;99.90;;;;;;5034397;28;20024;-53
2022/06/28 05:27:03;;;;;;;14.68;7.95;;;18.40;99.90;;;;;;5034007;28;20028;-55
2022/06/28 05:29:28;;;;;;;10.40;7.07;;;18.30;99.90;;;;;;5033237;28;20029;-51
2022/06/28 05:31:54;;;;;;;17.80;8.00;;;18.20;99.90;;;;;;5031838;28;20037;-52
2022/06/28 05:34:19;;;;;;;15.15;9.10;;;18.20;99.90;;;;;;5032782;28;20018;-53
2022/06/28 05:36:45;;;;;;;17.20;8.88;;;18.30;99.90;;;;;;5033877;28;20032;-56
2022/06/28 05:39:11;;;;;;;17.15;8.00;;;18.30;99.90;;;;;;5033830;28;20017;-54
2022/06/28 05:41:37;;;;;;;11.15;6.05;;;18.40;99.90;;;;;;5032533;28;20127;-50
2022/06/28 05:44:04;;;;;;;11.40;7.03;;;18.40;99.90;;;;;;5033849;28;20021;-53
2022/06/28 05:46:30;;;;;;;13.50;7.70;;;18.50;99.90;;;;;;5034367;28;20044;-57
2022/06/28 05:48:56;;;;;;;13.18;8.25;;;18.50;99.90;;;;;;5032497;28;20021;-55
2022/06/28 05:51:21;;;;;;;11.35;8.30;;;18.60;99.90;;;;;;5032633;28;20032;-51
2022/06/28 05:53:47;;;;;;;15.60;8.07;;;18.70;99.90;;;;;;5033899;28;20037;-55
2022/06/28 05:56:13;;;;;;;15.02;8.82;;;18.80;99.90;;;;;;5032718;28;20116;-54
2022/06/28 05:58:38;;;;;;;15.80;7.75;;;18.90;99.90;;;;;;5032356;28;20088;-54
2022/06/28 06:01:04;;;;;;;11.95;8.10;;;19.10;99.90;;;;;;5032480;28;20021;-51
2022/06/28 06:03:30;;;;;;;10.40;7.90;;;19.20;99.90;;;;;;5032596;28;20029;-54
2022/06/28 06:05:56;;;;;;;15.05;9.05;;;19.50;99.90;;;;;;5032527;28;20029;-54
2022/06/28 06:08:21;;;;;;;10.70;7.43;;;19.60;99.90;;;;;;5032424;28;20537;-51
2022/06/28 06:10:47;;;;;;;14.30;9.00;;;19.70;99.90;;;;;;5033242;28;20033;-51
2022/06/28 06:13:13;;;;;;;11.77;7.32;;;19.80;99.90;;;;;;5032188;28;20124;-51
2022/06/28 06:15:39;;;;;;;15.48;9.70;;;19.90;99.90;;;;;;5033390;28;20013;-53
2022/06/28 06:18:04;;;;;;;17.15;10.32;;;20.20;99.90;;;;;;5032664;28;20022;-52
2022/06/28 06:20:30;;;;;;;21.25;10.38;;;20.00;99.90;;;;;;5033794;28;20034;-54
2022/06/28 06:22:56;;;;;;;14.05;10.07;;;19.90;99.90;;;;;;5033329;28;20032;-52
2022/06/28 06:25:21;;;;;;;16.45;9.45;;;20.00;99.90;;;;;;5032825;28;20025;-52
2022/06/28 06:27:47;;;;;;;18.58;10.15;;;20.10;99.90;;;;;;5033211;28;20029;-52
2022/06/28 06:30:13;;;;;;;12.70;8.60;;;20.60;99.90;;;;;;5031791;28;20021;-55
2022/06/28 06:32:39;;;;;;;17.38;9.75;;;21.20;99.90;;;;;;5033128;28;20022;-53
2022/06/28 06:35:05;;;;;;;16.27;10.68;;;21.70;99.90;;;;;;5032274;28;20456;-56
2022/06/28 06:37:30;;;;;;;14.57;8.43;;;22.10;99.90;;;;;;5033091;28;20033;-55
2022/06/28 06:39:56;;;;;;;12.73;8.95;;;22.00;99.90;;;;;;5032561;28;20026;-54
2022/06/28 06:42:22;;;;;;;13.18;7.22;;;22.80;99.90;;;;;;5032674;28;20062;-53
2022/06/28 06:44:47;;;;;;;20.52;8.05;;;23.70;99.90;;;;;;5036767;28;20112;-48
2022/06/28 06:47:13;;;;;;;14.10;9.00;;;24.80;99.90;;;;;;5036692;28;20025;-51
2022/06/28 06:49:39;;;;;;;10.52;7.47;;;25.60;99.90;;;;;;5036189;28;20032;-49
2022/06/28 06:52:05;;;;;;;10.93;6.68;;;26.20;99.90;;;;;;5035688;28;20030;-51
2022/06/28 06:54:30;;;;;;;9.45;7.75;;;27.00;99.90;;;;;;5036958;28;20021;-51
2022/06/28 06:56:56;;;;;;;10.73;7.63;;;27.70;99.90;;;;;;5037249;28;20021;-53
2022/06/28 06:59:21;;;;;;;13.45;8.25;;;28.40;99.90;;;;;;5037234;28;20058;-49
2022/06/28 07:01:47;;;;;;;13.63;8.18;;;28.50;99.90;;;;;;5035898;28;20083;-49
2022/06/28 07:04:15;;;;;;;9.40;7.13;;;28.80;99.90;;;;;;5035597;28;20044;-51
2022/06/28 07:06:41;;;;;;;10.45;6.15;;;29.50;99.90;;;;;;5036375;28;20029;-52
2022/06/28 07:09:06;;;;;;;9.38;7.35;;;30.20;99.90;;;;;;5035921;28;20056;-50
2022/06/28 07:11:34;;;;;;;13.20;7.75;;;30.30;99.90;;;;;;5036854;28;20471;-51
2022/06/28 07:14:00;;;;;;;11.77;7.97;;;30.50;99.90;;;;;;5035692;28;20056;-49
2022/06/28 07:16:26;;;;;;;11.55;7.65;;;30.40;99.90;;;;;;5036198;28;20112;-50
2022/06/28 07:18:51;;;;;;;10.15;6.20;;;30.50;99.90;;;;;;5036619;28;20101;-50
2022/06/28 07:21:17;;;;;;;7.95;6.18;;;31.10;99.90;;;;;;5035532;28;20030;-50
2022/06/28 07:23:43;;;;;;;4.82;3.63;;;31.50;99.00;;;;;;5035266;28;20078;-52
2022/06/28 07:26:09;;;;;;;8.75;5.68;;;32.00;96.20;;;;;;5035106;28;20029;-51
2022/06/28 07:28:35;;;;;;;6.60;4.00;;;32.40;97.40;;;;;;5035339;28;20029;-49
2022/06/28 07:31:00;;;;;;;8.27;5.38;;;32.50;96.00;;;;;;5036644;28;20033;-51
2022/06/28 07:33:26;;;;;;;5.50;4.13;;;32.90;91.20;;;;;;5035008;28;20057;-51
2022/06/28 07:35:51;;;;;;;7.45;4.50;;;32.80;92.00;;;;;;5036105;28;20013;-49
2022/06/28 07:38:17;;;;;;;4.55;3.38;;;33.00;89.10;;;;;;5035049;28;20032;-52
2022/06/28 07:40:43;;;;;;;3.55;3.13;;;32.80;88.10;;;;;;5034896;28;20026;-49
2022/06/28 07:43:08;;;;;;;3.15;2.63;;;32.50;85.10;;;;;;5034905;28;20060;-49
2022/06/28 07:45:36;;;;;;;5.00;2.40;;;32.40;84.30;;;;;;5036164;28;20029;-50
2022/06/28 07:48:03;;;;;;;5.28;2.75;;;32.20;80.40;;;;;;5035102;28;20025;-49
2022/06/28 07:53:13;;;;;;;3.55;2.58;;;32.40;80.30;;;;;;5036492;28;20072;-51
2022/06/28 07:55:39;;;;;;;2.53;1.83;;;33.20;79.80;;;;;;5034139;28;20026;-49
2022/06/28 07:58:05;;;;;;;2.40;2.05;;;33.20;83.20;;;;;;5034687;28;20091;-50
2022/06/28 08:00:32;;;;;;;3.40;2.20;;;34.00;82.20;;;;;;5034557;28;20033;-50
2022/06/28 08:02:57;;;;;;;3.55;1.92;;;35.40;75.70;;;;;;5035855;28;20140;-50
2022/06/28 08:05:23;;;;;;;3.35;1.80;;;36.50;76.30;;;;;;5034816;28;20064;-50
2022/06/28 08:07:49;;;;;;;5.38;2.28;;;36.90;69.50;;;;;;5034789;28;20451;-53
2022/06/28 08:10:15;;;;;;;3.53;1.88;;;37.10;67.00;;;;;;5034312;28;20087;-53
2022/06/28 08:12:41;;;;;;;2.58;1.58;;;36.50;64.20;;;;;;5035547;28;20075;-51
2022/06/28 08:15:07;;;;;;;3.40;1.50;;;34.90;68.80;;;;;;5035655;28;20026;-54
2022/06/28 08:17:33;;;;;;;3.80;1.40;;;35.00;62.70;;;;;;5034227;28;20021;-50
2022/06/28 08:19:59;;;;;;;1.42;1.27;;;35.00;61.50;;;;;;5035389;28;20022;-50
2022/06/28 08:22:25;;;;;;;2.35;1.30;;;34.50;63.50;;;;;;5034285;28;20022;-51
2022/06/28 08:24:50;;;;;;;1.98;1.40;;;34.50;60.80;;;;;;5035346;28;20022;-52
2022/06/28 08:27:16;;;;;;;3.13;1.38;;;35.20;62.00;;;;;;5034152;28;20112;-54
2022/06/28 08:29:42;;;;;;;1.70;1.00;;;36.10;60.00;;;;;;5034821;28;20024;-53
2022/06/28 08:32:09;;;;;;;2.22;0.90;;;35.00;57.20;;;;;;5033743;28;20033;-50
2022/06/28 08:34:36;;;;;;;2.42;1.27;;;35.30;57.70;;;;;;5034121;28;20460;-51
2022/06/28 08:37:02;;;;;;;3.83;1.48;;;35.80;57.60;;;;;;5034167;28;20103;-51
2022/06/28 08:39:28;;;;;;;3.55;1.00;;;35.90;56.20;;;;;;5034647;28;20021;-50
2022/06/28 08:41:54;;;;;;;2.15;1.00;;;36.80;59.60;;;;;;5033683;28;20022;-52
2022/06/28 08:44:20;;;;;;;2.20;1.10;;;37.60;57.50;;;;;;5034924;28;20052;-50
2022/06/28 08:46:51;;;;;;;1.83;1.17;;;38.60;55.10;;;;;;5033708;28;20021;-50
2022/06/28 08:49:35;;;;;;;1.17;0.90;;;38.70;51.70;;;;;;5033613;28;20388;-52
2022/06/28 08:52:02;;;;;;;2.20;1.10;;;39.10;53.60;;;;;;5034574;28;20026;-57
2022/06/28 08:54:29;;;;;;;3.67;1.10;;;39.40;51.50;;;;;;5034634;28;20053;-61
2022/06/28 08:56:56;;;;;;;2.20;1.05;;;40.30;53.90;;;;;;5033925;28;20026;-58
2022/06/28 08:59:22;;;;;;;3.90;1.45;;;40.10;51.50;;;;;;5033324;28;20018;-58
2022/06/28 09:01:49;;;;;;;2.53;1.30;;;40.10;50.00;;;;;;5033702;28;20029;-56
2022/06/28 09:04:15;;;;;;;3.00;1.02;;;40.90;50.70;;;;;;5034670;28;20037;-53
2022/06/28 09:06:41;;;;;;;1.98;1.20;;;40.50;50.00;;;;;;5034489;28;20030;-51
2022/06/28 09:09:07;;;;;;;1.25;1.10;;;40.00;52.20;;;;;;5034352;28;20044;-54
2022/06/28 09:11:41;;;;;;;1.73;1.10;;;39.90;49.30;;;;;;5033450;28;20038;-55
2022/06/28 09:14:30;;;;;;;6.70;1.17;;;39.70;51.40;;;;;;5034355;28;20067;-55
2022/06/28 09:16:58;;;;;;;2.85;1.30;;;40.80;49.80;;;;;;5033998;28;20395;-54
2022/06/28 09:19:33;;;;;;;2.30;1.00;;;41.00;51.60;;;;;;5032941;28;20060;-51
2022/06/28 09:21:58;;;;;;;4.25;1.50;;;41.10;48.90;;;;;;5033298;28;20108;-54
2022/06/28 09:24:25;;;;;;;3.13;1.30;;;41.40;48.40;;;;;;5034416;28;20123;-55
2022/06/28 09:26:59;;;;;;;5.18;1.60;;;42.30;46.50;;;;;;5033185;28;20021;-54
2022/06/28 09:29:25;;;;;;;1.20;1.10;;;42.90;48.40;;;;;;5034099;28;20079;-53
2022/06/28 09:31:51;;;;;;;3.15;1.13;;;42.90;44.10;;;;;;5034201;28;20100;-56
2022/06/28 09:34:16;;;;;;;2.60;1.38;;;42.60;44.30;;;;;;5032684;28;20021;-56
2022/06/28 09:36:56;;;;;;;1.67;1.20;;;41.10;43.60;;;;;;5033868;28;20097;-52
2022/06/28 09:39:26;;;;;;;;;;;39.50;44.00;;;;;;5033540;28;20018;-58
2022/06/28 09:41:52;;;;;;;;;;;38.70;45.50;;;;;;5032838;28;19975;-50
2022/06/28 09:44:24;;;;;;;3.65;1.25;;;38.70;47.50;;;;;;5032755;28;19909;-50
2022/06/28 09:46:52;;;;;;;2.83;1.33;;;39.80;44.70;;;;;;5032497;28;20021;-50
2022/06/28 09:49:18;;;;;;;3.03;1.50;;;39.70;44.30;;;;;;5032418;28;20059;-51
2022/06/28 09:51:45;;;;;;;10.27;1.45;;;40.00;46.80;;;;;;5033504;28;20032;-51
2022/06/28 09:54:11;;;;;;;3.05;1.20;;;41.00;45.80;;;;;;5033680;28;20097;-50
2022/06/28 09:56:42;;;;;;;3.50;1.17;;;39.00;45.00;;;;;;5032621;28;20112;-50
2022/06/28 09:59:09;;;;;;;3.30;1.00;;;36.90;46.50;;;;;;5032747;28;20055;-50
2022/06/28 10:01:37;;;;;;;5.45;1.25;;;35.90;48.80;;;;;;5033727;28;20048;-51
2022/06/28 10:04:03;;;;;;;2.28;1.30;;;36.80;49.10;;;;;;5033462;28;20076;-49
2022/06/28 10:06:30;;;;;;;2.25;1.10;;;36.90;48.40;;;;;;5033535;28;20523;-51
2022/06/28 10:08:57;;;;;;;1.58;1.10;;;37.40;49.50;;;;;;5032167;28;20037;-49
2022/06/28 10:11:23;;;;;;;2.97;1.65;;;37.00;48.80;;;;;;5033271;28;20046;-49
2022/06/28 10:16:45;;;;;;;2.95;1.17;;;38.00;49.80;;;;;;5033437;28;20033;-49
2022/06/28 10:19:17;;;;;;;2.05;1.20;;;38.90;50.10;;;;;;5031770;28;20018;-50
2022/06/28 10:22:07;;;;;;;2.47;1.75;;;39.40;48.50;;;;;;5032325;28;20068;-50
2022/06/28 10:24:54;;;;;;;1.35;1.00;;;39.30;47.20;;;;;;5032341;28;20060;-51
2022/06/28 10:27:20;;;;;;;3.00;1.02;;;39.50;46.60;;;;;;5031989;28;20041;-50
2022/06/28 10:30:21;;;;;;;1.10;0.85;;;38.40;44.60;;;;;;5033191;28;20025;-50
2022/06/28 10:32:55;;;;;;;5.00;1.27;;;37.00;48.50;;;;;;5032808;28;20041;-49
2022/06/28 10:35:47;;;;;;;3.33;1.00;;;35.50;47.30;;;;;;5033116;28;20030;-49
2022/06/28 10:38:12;;;;;;;2.78;1.00;;;33.70;47.50;;;;;;5031504;28;20041;-51
2022/06/28 10:40:41;;;;;;;6.25;1.30;;;32.00;53.80;;;;;;5033100;28;20104;-52
2022/06/28 10:43:08;;;;;;;2.00;1.10;;;31.50;51.10;;;;;;5031899;28;20021;-52
2022/06/28 10:46:07;;;;;;;2.45;0.60;;;31.50;51.50;;;;;;5033098;28;20025;-49
2022/06/28 10:48:56;;;;;;;1.65;1.00;;;31.70;53.60;;;;;;5032184;28;20030;-50
2022/06/28 10:51:22;;;;;;;2.70;0.68;;;31.40;51.10;;;;;;5031502;28;20171;-51
2022/06/28 10:54:02;;;;;;;1.30;0.80;;;30.90;51.90;;;;;;5033059;28;20486;-51
2022/06/28 10:56:29;;;;;;;1.08;0.60;;;29.60;52.70;;;;;;5033078;28;20020;-51
2022/06/28 10:58:57;;;;;;;0.80;0.50;;;28.60;52.10;;;;;;5032701;28;20025;-54
2022/06/28 11:01:44;;;;;;;1.17;0.65;;;27.80;53.50;;;;;;5031601;28;20030;-55
2022/06/28 11:04:12;;;;;;;0.68;0.57;;;27.00;53.20;;;;;;5033135;28;20033;-53
2022/06/28 11:06:51;;;;;;;1.23;0.50;;;26.30;55.40;;;;;;5031949;28;20405;-55
2022/06/28 11:10:09;;;;;;;1.38;0.57;;;26.60;56.70;;;;;;5031649;28;20033;-54
2022/06/28 11:12:38;;;;;;;2.15;0.60;;;26.60;55.30;;;;;;5031686;28;20042;-53
2022/06/28 11:15:06;;;;;;;1.85;0.70;;;26.70;59.30;;;;;;5031651;28;20026;-52
2022/06/28 11:17:33;;;;;;;2.72;0.70;;;26.30;56.50;;;;;;5031880;28;20064;-55
2022/06/28 11:20:03;;;;;;;0.43;0.40;;;26.30;58.20;;;;;;5031866;28;20124;-54
2022/06/28 11:22:36;;;;;;;2.72;0.60;;;26.60;56.80;;;;;;5032915;28;20040;-53
2022/06/28 11:25:04;;;;;;;6.88;1.00;;;26.30;59.00;;;;;;5031569;28;20036;-53
2022/06/28 11:27:31;;;;;;;1.05;0.70;;;26.40;61.10;;;;;;5032729;28;20110;-58
2022/06/28 11:30:00;;;;;;;2.00;0.60;;;26.40;57.70;;;;;;5032578;28;20459;-53
2022/06/28 11:32:29;;;;;;;1.40;0.73;;;26.40;57.50;;;;;;5036252;28;20095;-52
2022/06/28 11:35:14;;;;;;;3.00;0.68;;;26.50;60.80;;;;;;5035057;28;20391;-51
2022/06/28 11:37:57;;;;;;;3.60;0.80;;;26.80;59.80;;;;;;5035085;28;20025;-56
2022/06/28 11:40:27;;;;;;;0.85;0.60;;;26.60;60.80;;;;;;5034935;28;20025;-56
2022/06/28 11:43:02;;;;;;;4.72;0.70;;;26.00;59.10;;;;;;5036127;28;20112;-54
2022/06/28 11:45:32;;;;;;;1.55;0.80;;;25.80;58.60;;;;;;5034836;28;20025;-55
2022/06/28 11:48:13;;;;;;;2.80;0.52;;;25.60;58.70;;;;;;5036246;28;20083;-57
2022/06/28 11:50:43;;;;;;;;;;;25.30;57.00;;;;;;5035286;28;20026;-56
2022/06/28 11:53:11;;;;;;;1.85;0.60;;;25.10;58.80;;;;;;5035238;28;20008;-59
2022/06/28 11:55:46;;;;;;;4.10;0.80;;;25.30;61.00;;;;;;5036230;28;20022;-58
2022/06/28 11:58:24;;;;;;;0.60;0.57;;;25.70;62.30;;;;;;5035820;28;20026;-59
2022/06/28 12:01:09;;;;;;;0.50;0.50;;;25.80;63.60;;;;;;5035770;28;20025;-56
2022/06/28 12:03:42;;;;;;;2.03;0.80;;;25.90;62.70;;;;;;5034631;28;20033;-56
2022/06/28 12:06:09;;;;;;;3.25;0.60;;;26.10;64.80;;;;;;5035834;28;20097;-52
2022/06/28 12:08:46;;;;;;;0.90;0.60;;;26.30;62.30;;;;;;5035618;28;20053;-55
2022/06/28 12:11:28;;;;;;;1.90;0.50;;;26.40;60.90;;;;;;5034134;28;20048;-56
2022/06/28 12:14:03;;;;;;;1.92;0.73;;;26.60;63.20;;;;;;5035605;28;20020;-56
2022/06/28 12:16:37;;;;;;;1.92;0.80;;;26.70;61.00;;;;;;5034153;28;20025;-52
2022/06/28 12:19:06;;;;;;;1.75;0.60;;;26.40;60.50;;;;;;5034214;28;20021;-56
2022/06/28 12:21:31;;;;;;;1.05;0.77;;;26.50;61.60;;;;;;5035694;28;20040;-59
2022/06/28 12:23:58;;;;;;;3.28;0.80;;;25.90;61.30;;;;;;5034282;28;20029;-53
2022/06/28 12:26:44;;;;;;;1.25;0.80;;;26.00;61.50;;;;;;5035643;28;20076;-56
2022/06/28 12:29:12;;;;;;;7.50;0.70;;;25.90;61.70;;;;;;5034626;28;20379;-57
2022/06/28 12:31:40;;;;;;;2.95;0.93;;;26.00;60.40;;;;;;5033811;28;20029;-56
2022/06/28 12:34:07;;;;;;;1.08;0.60;;;26.10;61.10;;;;;;5035269;28;20080;-55
2022/06/28 12:36:34;;;;;;;3.10;0.68;;;26.10;61.10;;;;;;5035499;28;20032;-55
2022/06/28 12:38:59;;;;;;;2.08;0.68;;;26.10;63.80;;;;;;5033973;28;20029;-55
2022/06/28 12:41:25;;;;;;;3.55;1.08;;;25.70;60.00;;;;;;5034632;28;20035;-55
2022/06/28 12:43:50;;;;;;;0.63;0.60;;;25.90;62.00;;;;;;5035046;28;20025;-55
2022/06/28 12:46:16;;;;;;;0.52;0.50;;;25.50;61.50;;;;;;5034999;28;20035;-57
2022/06/28 12:48:42;;;;;;;2.80;0.65;;;25.40;63.00;;;;;;5033726;28;20052;-56
2022/06/28 12:51:07;;;;;;;1.10;0.60;;;25.30;62.20;;;;;;5033938;28;20109;-56
2022/06/28 12:53:33;;;;;;;1.20;0.55;;;25.00;62.70;;;;;;5033605;28;20117;-52
2022/06/28 12:55:59;;;;;;;0.65;0.65;;;25.00;63.40;;;;;;5033489;28;20037;-56
2022/06/28 12:58:24;;;;;;;2.90;0.50;;;25.30;63.70;;;;;;5034951;28;20025;-55
2022/06/28 13:00:50;;;;;;;2.15;0.40;;;25.40;63.70;;;;;;5034101;28;20021;-57
2022/06/28 13:03:16;;;;;;;1.13;0.80;;;25.40;63.80;;;;;;5034914;28;20108;-59